sensor_id;sensor_type;location;lat;lon;timestamp;P1;durP1;ratioP1;P2;durP2;ratioP2
12040;SDS011;6081;48.734;9.108;2022-07-04T00:06:31;1.37;;;0.80;;
12040;SDS011;6081;48.734;9.108;2022-07-04T00:16:33;0.80;;;0.80;;
12040;SDS011;6081;48.734;9.108;2022-07-04T00:26:36;1.23;;;0.90;;
12040;SDS011;6081;48.734;9.108;2022-07-04T00:36:38;0.80;;;0.80;;
12040;SDS011;6081;48.734;9.108;2022-07-04T00:46:42;0.80;;;0.80;;
12040;SDS011;6081;48.734;9.108;2022-07-04T00:56:45;1.13;;;0.80;;
12040;SDS011;6081;48.734;9.108;2022-07-04T01:06:48;1.07;;;0.93;;
12040;SDS011;6081;48.734;9.108;2022-07-04T01:16:50;0.80;;;0.80;;
12040;SDS011;6081;48.734;9.108;2022-07-04T01:26:53;2.03;;;1.10;;
12040;SDS011;6081;48.734;9.108;2022-07-04T01:36:55;1.87;;;1.77;;
12040;SDS011;6081;48.734;9.108;2022-07-04T01:46:58;1.23;;;1.07;;
12040;SDS011;6081;48.734;9.108;2022-07-04T01:57:00;3.33;;;0.80;;
12040;SDS011;6081;48.734;9.108;2022-07-04T02:07:04;2.83;;;0.90;;
12040;SDS011;6081;48.734;9.108;2022-07-04T02:17:06;2.57;;;1.00;;
12040;SDS011;6081;48.734;9.108;2022-07-04T02:27:09;0.97;;;0.97;;
12040;SDS011;6081;48.734;9.108;2022-07-04T02:37:11;2.30;;;0.97;;
12040;SDS011;6081;48.734;9.108;2022-07-04T02:47:14;0.90;;;0.90;;
12040;SDS011;6081;48.734;9.108;2022-07-04T02:57:16;1.60;;;1.10;;
12040;SDS011;6081;48.734;9.108;2022-07-04T03:07:20;1.27;;;1.10;;
12040;SDS011;6081;48.734;9.108;2022-07-04T03:17:21;0.83;;;0.83;;
12040;SDS011;6081;48.734;9.108;2022-07-04T03:27:25;1.50;;;0.90;;
12040;SDS011;6081;48.734;9.108;2022-07-04T03:37:26;0.80;;;0.80;;
12040;SDS011;6081;48.734;9.108;2022-07-04T03:47:30;1.67;;;1.00;;
12040;SDS011;6081;48.734;9.108;2022-07-04T03:57:31;2.07;;;1.20;;
12040;SDS011;6081;48.734;9.108;2022-07-04T04:07:35;2.93;;;0.90;;
12040;SDS011;6081;48.734;9.108;2022-07-04T04:17:36;0.90;;;0.80;;
12040;SDS011;6081;48.734;9.108;2022-07-04T04:27:40;2.10;;;0.90;;
12040;SDS011;6081;48.734;9.108;2022-07-04T04:37:41;0.80;;;0.80;;
12040;SDS011;6081;48.734;9.108;2022-07-04T04:47:44;1.10;;;1.00;;
12040;SDS011;6081;48.734;9.108;2022-07-04T04:57:46;1.43;;;0.80;;
12040;SDS011;6081;48.734;9.108;2022-07-04T05:07:49;1.50;;;1.10;;
12040;SDS011;6081;48.734;9.108;2022-07-04T05:17:51;1.20;;;0.83;;
12040;SDS011;6081;48.734;9.108;2022-07-04T05:27:54;1.87;;;0.83;;
12040;SDS011;6081;48.734;9.108;2022-07-04T05:37:56;1.20;;;1.10;;
12040;SDS011;6081;48.734;9.108;2022-07-04T05:48:00;0.80;;;0.70;;
12040;SDS011;6081;48.734;9.108;2022-07-04T05:58:01;0.67;;;0.67;;
12040;SDS011;6081;48.734;9.108;2022-07-04T06:08:05;1.87;;;0.80;;
12040;SDS011;6081;48.734;9.108;2022-07-04T06:18:06;1.60;;;0.70;;
12040;SDS011;6081;48.734;9.108;2022-07-04T06:28:10;2.03;;;0.67;;
12040;SDS011;6081;48.734;9.108;2022-07-04T06:38:12;0.80;;;0.80;;
12040;SDS011;6081;48.734;9.108;2022-07-04T06:48:16;0.80;;;0.80;;
12040;SDS011;6081;48.734;9.108;2022-07-04T06:58:19;0.73;;;0.70;;
12040;SDS011;6081;48.734;9.108;2022-07-04T07:08:22;2.20;;;1.00;;
12040;SDS011;6081;48.734;9.108;2022-07-04T07:18:24;1.20;;;0.90;;
12040;SDS011;6081;48.734;9.108;2022-07-04T07:28:27;1.13;;;0.70;;
12040;SDS011;6081;48.734;9.108;2022-07-04T07:38:29;1.37;;;0.77;;
12040;SDS011;6081;48.734;9.108;2022-07-04T07:48:32;1.00;;;1.00;;
12040;SDS011;6081;48.734;9.108;2022-07-04T07:58:34;1.13;;;1.00;;
12040;SDS011;6081;48.734;9.108;2022-07-04T08:08:38;1.00;;;0.80;;
12040;SDS011;6081;48.734;9.108;2022-07-04T08:18:40;2.60;;;1.03;;
12040;SDS011;6081;48.734;9.108;2022-07-04T08:28:43;1.63;;;0.93;;
12040;SDS011;6081;48.734;9.108;2022-07-04T08:38:45;2.20;;;0.97;;
12040;SDS011;6081;48.734;9.108;2022-07-04T08:48:52;2.70;;;1.00;;
12040;SDS011;6081;48.734;9.108;2022-07-04T08:58:56;1.17;;;1.03;;
12040;SDS011;6081;48.734;9.108;2022-07-04T09:09:00;1.10;;;1.00;;
12040;SDS011;6081;48.734;9.108;2022-07-04T09:19:02;1.50;;;0.97;;
12040;SDS011;6081;48.734;9.108;2022-07-04T09:29:05;1.30;;;1.20;;
12040;SDS011;6081;48.734;9.108;2022-07-04T09:39:07;1.47;;;1.10;;
12040;SDS011;6081;48.734;9.108;2022-07-04T09:49:15;1.70;;;1.10;;
12040;SDS011;6081;48.734;9.108;2022-07-04T09:59:17;2.17;;;1.10;;
12040;SDS011;6081;48.734;9.108;2022-07-04T10:09:20;1.60;;;0.93;;
12040;SDS011;6081;48.734;9.108;2022-07-04T10:19:23;1.00;;;0.90;;
12040;SDS011;6081;48.734;9.108;2022-07-04T10:29:27;0.70;;;0.70;;
12040;SDS011;6081;48.734;9.108;2022-07-04T10:39:29;0.80;;;0.80;;
12040;SDS011;6081;48.734;9.108;2022-07-04T10:49:34;0.90;;;0.90;;
12040;SDS011;6081;48.734;9.108;2022-07-04T10:59:37;3.30;;;1.20;;
12040;SDS011;6081;48.734;9.108;2022-07-04T11:09:41;2.87;;;1.40;;
12040;SDS011;6081;48.734;9.108;2022-07-04T11:19:43;2.83;;;1.13;;
12040;SDS011;6081;48.734;9.108;2022-07-04T11:29:50;1.10;;;1.00;;
12040;SDS011;6081;48.734;9.108;2022-07-04T11:39:52;1.13;;;0.90;;
12040;SDS011;6081;48.734;9.108;2022-07-04T11:50:17;1.17;;;1.13;;
12040;SDS011;6081;48.734;9.108;2022-07-04T12:00:20;1.60;;;1.20;;
12040;SDS011;6081;48.734;9.108;2022-07-04T12:10:27;1.10;;;1.00;;
12040;SDS011;6081;48.734;9.108;2022-07-04T12:20:29;1.20;;;1.17;;
12040;SDS011;6081;48.734;9.108;2022-07-04T12:30:33;2.03;;;1.40;;
12040;SDS011;6081;48.734;9.108;2022-07-04T12:40:37;1.07;;;1.03;;
12040;SDS011;6081;48.734;9.108;2022-07-04T12:50:51;1.20;;;1.10;;
12040;SDS011;6081;48.734;9.108;2022-07-04T13:00:53;1.33;;;1.00;;
12040;SDS011;6081;48.734;9.108;2022-07-04T13:10:57;2.63;;;1.20;;
12040;SDS011;6081;48.734;9.108;2022-07-04T13:21:12;0.87;;;0.87;;
12040;SDS011;6081;48.734;9.108;2022-07-04T13:31:16;1.10;;;1.00;;
12040;SDS011;6081;48.734;9.108;2022-07-04T13:41:17;0.90;;;0.90;;
12040;SDS011;6081;48.734;9.108;2022-07-04T13:51:21;2.37;;;1.00;;
12040;SDS011;6081;48.734;9.108;2022-07-04T14:01:22;1.10;;;1.00;;
12040;SDS011;6081;48.734;9.108;2022-07-04T14:11:26;1.20;;;1.00;;
12040;SDS011;6081;48.734;9.108;2022-07-04T14:21:28;1.73;;;1.27;;
12040;SDS011;6081;48.734;9.108;2022-07-04T14:31:31;1.00;;;1.00;;
12040;SDS011;6081;48.734;9.108;2022-07-04T14:41:33;2.00;;;1.00;;
12040;SDS011;6081;48.734;9.108;2022-07-04T14:51:36;1.33;;;1.23;;
12040;SDS011;6081;48.734;9.108;2022-07-04T15:01:40;1.17;;;1.17;;
12040;SDS011;6081;48.734;9.108;2022-07-04T15:11:43;1.30;;;1.20;;
12040;SDS011;6081;48.734;9.108;2022-07-04T15:21:47;2.57;;;0.97;;
12040;SDS011;6081;48.734;9.108;2022-07-04T15:32:07;2.23;;;1.00;;
12040;SDS011;6081;48.734;9.108;2022-07-04T15:42:09;1.03;;;1.03;;
12040;SDS011;6081;48.734;9.108;2022-07-04T15:52:12;1.40;;;1.30;;
12040;SDS011;6081;48.734;9.108;2022-07-04T16:02:14;2.97;;;1.23;;
12040;SDS011;6081;48.734;9.108;2022-07-04T16:12:17;1.30;;;1.20;;
12040;SDS011;6081;48.734;9.108;2022-07-04T16:22:19;1.93;;;1.10;;
12040;SDS011;6081;48.734;9.108;2022-07-04T16:32:23;2.03;;;1.03;;
12040;SDS011;6081;48.734;9.108;2022-07-04T16:42:25;0.80;;;0.80;;
12040;SDS011;6081;48.734;9.108;2022-07-04T16:52:29;0.97;;;0.90;;
12040;SDS011;6081;48.734;9.108;2022-07-04T17:02:31;1.67;;;1.00;;
12040;SDS011;6081;48.734;9.108;2022-07-04T17:12:34;1.13;;;1.03;;
12040;SDS011;6081;48.734;9.108;2022-07-04T17:22:36;0.83;;;0.80;;
12040;SDS011;6081;48.734;9.108;2022-07-04T17:32:40;1.50;;;1.20;;
12040;SDS011;6081;48.734;9.108;2022-07-04T17:42:42;1.00;;;0.90;;
12040;SDS011;6081;48.734;9.108;2022-07-04T17:52:45;0.60;;;0.60;;
12040;SDS011;6081;48.734;9.108;2022-07-04T18:02:47;0.60;;;0.60;;
12040;SDS011;6081;48.734;9.108;2022-07-04T18:12:50;0.70;;;0.70;;
12040;SDS011;6081;48.734;9.108;2022-07-04T18:22:51;0.60;;;0.60;;
12040;SDS011;6081;48.734;9.108;2022-07-04T18:32:58;1.50;;;0.60;;
12040;SDS011;6081;48.734;9.108;2022-07-04T18:43:00;0.70;;;0.70;;
12040;SDS011;6081;48.734;9.108;2022-07-04T18:53:20;0.80;;;0.60;;
12040;SDS011;6081;48.734;9.108;2022-07-04T19:03:22;0.80;;;0.80;;
12040;SDS011;6081;48.734;9.108;2022-07-04T19:13:26;0.70;;;0.70;;
12040;SDS011;6081;48.734;9.108;2022-07-04T19:23:28;0.73;;;0.73;;
12040;SDS011;6081;48.734;9.108;2022-07-04T19:33:31;1.33;;;0.57;;
12040;SDS011;6081;48.734;9.108;2022-07-04T19:43:33;2.33;;;0.80;;
12040;SDS011;6081;48.734;9.108;2022-07-04T19:53:36;1.00;;;0.90;;
12040;SDS011;6081;48.734;9.108;2022-07-04T20:03:40;0.80;;;0.73;;
12040;SDS011;6081;48.734;9.108;2022-07-04T20:13:44;1.43;;;0.97;;
12040;SDS011;6081;48.734;9.108;2022-07-04T20:23:46;0.90;;;0.90;;
12040;SDS011;6081;48.734;9.108;2022-07-04T20:33:50;1.10;;;1.00;;
12040;SDS011;6081;48.734;9.108;2022-07-04T20:43:53;1.87;;;1.20;;
12040;SDS011;6081;48.734;9.108;2022-07-04T20:53:56;2.70;;;1.30;;
12040;SDS011;6081;48.734;9.108;2022-07-04T21:03:58;2.80;;;1.53;;
12040;SDS011;6081;48.734;9.108;2022-07-04T21:14:01;1.43;;;1.33;;
12040;SDS011;6081;48.734;9.108;2022-07-04T21:24:03;23.07;;;18.83;;
12040;SDS011;6081;48.734;9.108;2022-07-04T21:34:07;29.53;;;19.33;;
12040;SDS011;6081;48.734;9.108;2022-07-04T21:44:08;8.13;;;6.53;;
12040;SDS011;6081;48.734;9.108;2022-07-04T21:54:12;3.63;;;3.10;;
12040;SDS011;6081;48.734;9.108;2022-07-04T22:04:14;1.53;;;1.30;;
12040;SDS011;6081;48.734;9.108;2022-07-04T22:14:17;1.03;;;1.00;;
12040;SDS011;6081;48.734;9.108;2022-07-04T22:24:19;1.53;;;1.40;;
12040;SDS011;6081;48.734;9.108;2022-07-04T22:34:22;1.30;;;1.20;;
12040;SDS011;6081;48.734;9.108;2022-07-04T22:44:24;1.30;;;1.20;;
12040;SDS011;6081;48.734;9.108;2022-07-04T22:54:27;1.20;;;1.10;;
12040;SDS011;6081;48.734;9.108;2022-07-04T23:04:47;1.50;;;1.10;;
12040;SDS011;6081;48.734;9.108;2022-07-04T23:14:51;3.13;;;1.00;;
12040;SDS011;6081;48.734;9.108;2022-07-04T23:24:54;1.23;;;0.90;;
12040;SDS011;6081;48.734;9.108;2022-07-04T23:34:57;1.20;;;1.20;;
12040;SDS011;6081;48.734;9.108;2022-07-04T23:44:59;1.53;;;1.03;;
12040;SDS011;6081;48.734;9.108;2022-07-04T23:55:03;2.67;;;1.23;;
